createdAt,value
2018-11-26T00:01:48.110Z,67.33
2018-11-26T00:06:50.783Z,68.83
2018-11-26T00:11:53.398Z,68.33
2018-11-26T00:16:55.974Z,71.07
2018-11-26T00:21:58.591Z,66.63
2018-11-26T00:27:01.183Z,72.70
2018-11-26T00:32:06.786Z,76.90
2018-11-26T00:37:09.358Z,69.70
2018-11-26T00:42:11.994Z,69.53
2018-11-26T00:47:14.543Z,67.37
2018-11-26T00:52:17.107Z,71.03
2018-11-26T00:57:19.701Z,72.70
2018-11-26T01:02:22.311Z,75.63
2018-11-26T01:07:24.903Z,76.73
2018-11-26T01:12:27.494Z,70.80
2018-11-26T01:17:30.080Z,75.80
2018-11-26T01:22:32.678Z,73.47
2018-11-26T01:27:35.240Z,79.60
2018-11-26T01:32:37.879Z,78.47
2018-11-26T01:37:40.526Z,73.77
2018-11-26T01:42:43.195Z,74.03
2018-11-26T01:47:45.751Z,81.07
2018-11-26T01:52:48.344Z,68.47
2018-11-26T01:57:51.063Z,71.83
2018-11-26T02:02:53.943Z,65.10
2018-11-26T02:07:56.591Z,76.83
2018-11-26T02:12:59.202Z,71.60
2018-11-26T02:18:01.790Z,70.40
2018-11-26T02:23:04.449Z,71.33
2018-11-26T02:28:07.014Z,68.17
2018-11-26T02:33:09.653Z,72.90
2018-11-26T02:38:12.208Z,75.10
2018-11-26T02:43:14.811Z,72.03
2018-11-26T02:48:17.400Z,71.93
2018-11-26T02:53:19.998Z,65.33
2018-11-26T02:58:22.587Z,62.37
2018-11-26T03:03:25.215Z,60.00
2018-11-26T03:08:27.838Z,59.47
2018-11-26T03:13:30.429Z,53.87
2018-11-26T03:18:33.038Z,48.33
2018-11-26T03:23:35.673Z,50.90
2018-11-26T03:28:38.246Z,51.70
2018-11-26T03:33:40.845Z,48.97
2018-11-26T03:38:51.622Z,45.40
2018-11-26T03:43:54.272Z,49.50
2018-11-26T03:48:56.829Z,54.00
2018-11-26T03:53:59.425Z,48.67
2018-11-26T03:59:02.010Z,51.30
2018-11-26T04:04:04.618Z,47.93
2018-11-26T04:09:07.751Z,49.33
2018-11-26T04:14:10.388Z,47.77
2018-11-26T04:19:12.986Z,48.83
2018-11-26T04:24:15.562Z,50.30
2018-11-26T04:29:18.150Z,54.03
2018-11-26T04:34:20.767Z,58.00
2018-11-26T04:39:23.373Z,53.27
2018-11-26T04:44:25.987Z,47.17
2018-11-26T04:49:28.692Z,48.60
2018-11-26T04:54:31.344Z,55.20
2018-11-26T04:59:33.922Z,49.50
2018-11-26T05:04:36.542Z,53.63
2018-11-26T05:09:39.347Z,49.73
2018-11-26T05:14:41.934Z,51.93
2018-11-26T05:19:44.531Z,52.80
2018-11-26T05:24:47.182Z,50.63
2018-11-26T05:29:49.837Z,58.03
2018-11-26T05:34:52.505Z,63.50
2018-11-26T05:39:55.057Z,63.67
2018-11-26T05:44:57.620Z,67.17
2018-11-26T05:50:00.430Z,61.90
2018-11-26T05:55:03.302Z,62.17
2018-11-26T06:00:13.793Z,67.40
2018-11-26T06:05:16.726Z,66.77
2018-11-26T06:10:19.510Z,64.63
2018-11-26T06:15:22.328Z,64.10
2018-11-26T06:20:25.099Z,67.07
2018-11-26T06:25:27.788Z,63.10
2018-11-26T06:30:30.444Z,63.40
2018-11-26T06:35:33.066Z,65.83
2018-11-26T06:40:35.839Z,63.80
2018-11-26T06:45:38.478Z,62.20
2018-11-26T06:50:41.118Z,64.30
2018-11-26T06:55:43.743Z,64.50
2018-11-26T07:00:46.342Z,63.00
2018-11-26T07:05:49.229Z,65.70
2018-11-26T07:10:51.838Z,63.40
2018-11-26T07:15:54.513Z,63.20
2018-11-26T07:20:57.167Z,67.60
2018-11-26T07:26:00.490Z,64.83
2018-11-26T07:31:03.179Z,61.70
2018-11-26T07:36:11.160Z,64.17
2018-11-26T07:41:08.470Z,65.80
2018-11-26T07:46:11.100Z,70.93
2018-11-26T07:51:14.027Z,66.70
2018-11-26T07:56:16.654Z,66.43
2018-11-26T08:01:19.286Z,62.17
2018-11-26T08:06:22.157Z,69.70
2018-11-26T08:11:24.796Z,63.80
2018-11-26T08:16:27.526Z,67.87
2018-11-26T08:21:30.214Z,76.10
2018-11-26T08:26:32.914Z,72.40
2018-11-26T08:31:35.679Z,67.37
2018-11-26T08:36:43.608Z,65.17
2018-11-26T08:41:52.951Z,66.00
2018-11-26T08:46:55.707Z,67.17
2018-11-26T08:51:58.303Z,75.07
2018-11-26T08:57:01.139Z,64.80
2018-11-26T09:02:08.250Z,60.47
2018-11-26T09:07:10.960Z,61.47
2018-11-26T09:12:13.583Z,55.80
2018-11-26T09:17:16.223Z,56.33
2018-11-26T09:22:19.050Z,54.37
2018-11-26T09:27:21.756Z,55.60
2018-11-26T09:32:24.379Z,53.20
2018-11-26T09:37:27.144Z,50.93
2018-11-26T09:42:29.760Z,55.63
2018-11-26T09:47:32.364Z,51.47
2018-11-26T09:52:35.039Z,51.57
2018-11-26T09:57:37.816Z,52.30
2018-11-26T10:02:41.878Z,48.60
2018-11-26T10:07:44.663Z,50.63
2018-11-26T10:12:47.333Z,47.97
2018-11-26T10:17:50.247Z,46.93
2018-11-26T10:22:53.390Z,46.37
2018-11-26T10:27:56.020Z,43.23
2018-11-26T10:32:58.823Z,44.23
2018-11-26T10:38:01.460Z,48.63
2018-11-26T10:43:04.386Z,40.77
2018-11-26T10:48:07.169Z,39.67
2018-11-26T10:53:09.948Z,37.37
2018-11-26T10:58:12.669Z,38.97
2018-11-26T11:03:15.367Z,39.67
2018-11-26T11:08:18.022Z,42.80
2018-11-26T11:13:20.726Z,40.53
2018-11-26T11:18:23.330Z,38.87
2018-11-26T11:23:26.060Z,44.07
2018-11-26T11:28:28.736Z,38.07
2018-11-26T11:33:31.358Z,36.93
2018-11-26T11:38:34.195Z,36.70
2018-11-26T11:43:36.981Z,39.27
2018-11-26T11:48:39.583Z,38.27
2018-11-26T11:53:42.507Z,35.03
2018-11-26T11:58:45.130Z,34.70
2018-11-26T12:03:47.755Z,36.60
2018-11-26T12:08:50.393Z,37.43
2018-11-26T12:13:53.057Z,36.60
2018-11-26T12:18:55.652Z,40.10
2018-11-26T12:23:58.343Z,32.87
2018-11-26T12:29:00.998Z,37.00
2018-11-26T12:34:03.993Z,32.87
2018-11-26T12:39:08.611Z,34.73
2018-11-26T12:44:11.232Z,50.83
2018-11-26T12:49:13.955Z,31.73
2018-11-26T12:54:16.632Z,33.10
2018-11-26T12:59:19.283Z,37.77
2018-11-26T13:04:22.171Z,33.57
2018-11-26T13:09:24.729Z,32.07
2018-11-26T13:14:27.431Z,41.43
2018-11-26T13:19:30.216Z,33.90
2018-11-26T13:24:32.836Z,33.33
2018-11-26T13:29:35.460Z,36.07
2018-11-26T13:34:38.373Z,33.27
2018-11-26T13:39:40.829Z,33.70
2018-11-26T13:44:43.395Z,36.03
2018-11-26T13:49:46.335Z,31.70
2018-11-26T13:54:48.789Z,29.43
2018-11-26T13:59:51.409Z,31.47
2018-11-26T14:04:54.017Z,28.63
2018-11-26T14:09:56.696Z,30.03
2018-11-26T14:14:59.360Z,30.07
2018-11-26T14:20:02.067Z,29.60
2018-11-26T14:25:06.451Z,31.70
2018-11-26T14:30:15.033Z,32.67
2018-11-26T14:35:17.697Z,31.37
2018-11-26T14:40:23.651Z,33.87
2018-11-26T14:45:26.320Z,32.33
2018-11-26T14:50:29.028Z,31.50
2018-11-26T14:55:35.431Z,29.63
2018-11-26T15:00:38.181Z,29.17
2018-11-26T15:05:40.800Z,31.00
2018-11-26T15:10:43.433Z,33.13
2018-11-26T15:15:46.065Z,27.97
2018-11-26T15:20:48.766Z,24.50
2018-11-26T15:25:51.438Z,29.80
2018-11-26T15:30:54.092Z,25.67
2018-11-26T15:35:56.689Z,24.03
2018-11-26T15:40:59.410Z,29.10
2018-11-26T15:46:02.030Z,31.53
2018-11-26T15:51:05.224Z,28.53
2018-11-26T15:56:07.954Z,27.70
2018-11-26T16:01:10.560Z,28.47
2018-11-26T16:06:13.217Z,26.27
2018-11-26T16:11:15.821Z,29.00
2018-11-26T16:16:18.424Z,24.97
2018-11-26T16:21:21.044Z,30.17
2018-11-26T16:26:23.693Z,26.23
2018-11-26T16:31:26.389Z,26.57
2018-11-26T16:36:29.071Z,26.83
2018-11-26T16:41:31.677Z,25.63
2018-11-26T16:46:34.234Z,26.67
2018-11-26T16:51:36.900Z,24.03
2018-11-26T16:56:40.030Z,25.70
2018-11-26T17:01:42.835Z,26.27
2018-11-26T17:06:45.592Z,23.23
2018-11-26T17:11:48.404Z,22.93
2018-11-26T17:16:51.076Z,26.13
2018-11-26T17:21:53.944Z,21.30
2018-11-26T17:26:56.669Z,24.27
2018-11-26T17:32:00.004Z,23.70
2018-11-26T17:37:02.733Z,25.90
2018-11-26T17:42:05.961Z,23.83
2018-11-26T17:47:08.661Z,22.47
2018-11-26T17:52:11.389Z,22.40
2018-11-26T17:57:14.052Z,23.73
2018-11-26T18:02:16.727Z,20.57
2018-11-26T18:07:19.647Z,20.77
2018-11-26T18:12:22.215Z,23.93
2018-11-26T18:17:24.839Z,22.13
2018-11-26T18:22:27.477Z,20.27
2018-11-26T18:27:30.132Z,25.73
2018-11-26T18:32:32.696Z,22.00
2018-11-26T18:37:35.430Z,19.83
2018-11-26T18:42:38.027Z,22.10
2018-11-26T18:47:40.640Z,18.23
2018-11-26T18:52:44.020Z,23.73
2018-11-26T18:57:46.797Z,22.27
2018-11-26T19:02:50.230Z,23.90
2018-11-26T19:07:52.754Z,27.23
2018-11-26T19:12:59.923Z,24.07
2018-11-26T19:18:25.776Z,25.73
2018-11-26T19:23:28.372Z,25.17
2018-11-26T19:28:31.069Z,27.50
2018-11-26T19:33:33.983Z,35.37
2018-11-26T19:38:36.731Z,36.80
2018-11-26T19:43:39.340Z,35.00
2018-11-26T19:48:42.022Z,35.97
2018-11-26T19:53:44.580Z,36.03
2018-11-26T19:58:47.153Z,38.53
2018-11-26T20:03:58.707Z,38.83
2018-11-26T20:09:01.355Z,39.27
2018-11-26T20:14:04.889Z,40.47
2018-11-26T20:19:07.471Z,41.93
2018-11-26T20:24:10.070Z,39.40
2018-11-26T20:29:12.693Z,43.33
2018-11-26T20:34:15.269Z,44.20
2018-11-26T20:39:17.884Z,40.70
2018-11-26T20:44:20.553Z,43.30
2018-11-26T20:49:23.217Z,40.63
2018-11-26T20:54:25.932Z,41.53
2018-11-26T20:59:28.585Z,41.50
2018-11-26T21:04:31.212Z,41.37
2018-11-26T21:09:33.944Z,42.23
2018-11-26T21:14:36.627Z,41.93
2018-11-26T21:19:39.224Z,38.60
2018-11-26T21:24:41.851Z,42.93
2018-11-26T21:29:44.446Z,39.90
2018-11-26T21:34:47.046Z,43.70
2018-11-26T21:39:53.114Z,48.07
2018-11-26T21:44:55.973Z,44.90
2018-11-26T21:49:58.614Z,44.13
2018-11-26T21:55:01.229Z,45.23
2018-11-26T22:00:25.507Z,47.37
2018-11-26T22:05:29.064Z,42.83
2018-11-26T22:10:31.722Z,41.10
2018-11-26T22:15:34.433Z,41.60
2018-11-26T22:20:37.036Z,43.00
2018-11-26T22:25:39.645Z,38.53
2018-11-26T22:30:42.292Z,37.20
2018-11-26T22:35:44.948Z,39.40
2018-11-26T22:40:47.623Z,44.27
2018-11-26T22:45:50.420Z,39.77
2018-11-26T22:50:53.072Z,38.83
2018-11-26T22:55:55.695Z,38.73
2018-11-26T23:00:58.287Z,35.63
2018-11-26T23:06:00.886Z,36.27
2018-11-26T23:11:03.430Z,38.63
2018-11-26T23:16:06.804Z,35.60
2018-11-26T23:21:09.425Z,37.37
2018-11-26T23:26:12.041Z,38.07
2018-11-26T23:31:14.937Z,37.90
2018-11-26T23:36:17.633Z,41.90
2018-11-26T23:41:20.228Z,37.47
2018-11-26T23:46:22.913Z,41.80
2018-11-26T23:51:25.720Z,35.30
2018-11-26T23:56:28.398Z,39.40
